Time;durP1;ratioP1;P1;durP2;ratioP2;P2;SDS_P1;SDS_P2;PMS_P1;PMS_P2;Temp;Humidity;BMP_temperature;BMP_pressure;BME280_temperature;BME280_humidity;BME280_pressure;Samples;Min_cycle;Max_cycle;Signal;HPM_P1;HPM_P2
2024/01/20 00:01:26;;;;;;;9.77;2.50;;;1.60;99.90;;;;;;6176093;23;20032;-65
2024/01/20 00:03:52;;;;;;;12.23;2.70;;;1.60;99.90;;;;;;6149405;23;20405;-65
2024/01/20 00:06:18;;;;;;;12.25;3.20;;;1.60;99.90;;;;;;6176498;23;20021;-65
2024/01/20 00:08:44;;;;;;;14.13;2.63;;;1.50;99.90;;;;;;6175848;23;20087;-65
2024/01/20 00:11:10;;;;;;;7.32;2.47;;;1.50;99.90;;;;;;6177448;23;20497;-65
2024/01/20 00:13:35;;;;;;;11.27;2.83;;;1.40;99.90;;;;;;6150786;23;20024;-65
2024/01/20 00:16:01;;;;;;;11.48;2.85;;;1.40;99.90;;;;;;6176276;23;20509;-65
2024/01/20 00:18:27;;;;;;;11.60;3.17;;;1.40;99.90;;;;;;6175919;23;20476;-65
2024/01/20 00:20:52;;;;;;;9.15;3.00;;;1.40;99.90;;;;;;6177337;23;20336;-65
2024/01/20 00:23:18;;;;;;;16.35;3.45;;;1.40;99.90;;;;;;6150104;23;20025;-65
2024/01/20 00:25:44;;;;;;;11.07;3.42;;;1.40;99.90;;;;;;6149800;23;20017;-65
2024/01/20 00:28:09;;;;;;;14.98;4.72;;;1.30;99.90;;;;;;6177708;23;20021;-65
2024/01/20 00:30:35;;;;;;;10.15;3.13;;;1.30;99.90;;;;;;6149436;23;20027;-66
2024/01/20 00:33:01;;;;;;;15.10;3.90;;;1.30;99.90;;;;;;6150178;23;20461;-65
2024/01/20 00:35:26;;;;;;;17.88;3.88;;;1.30;99.90;;;;;;6176499;23;20462;-65
2024/01/20 00:37:53;;;;;;;12.98;4.18;;;1.30;99.90;;;;;;6149483;23;20145;-65
2024/01/20 00:40:19;;;;;;;11.27;3.85;;;1.30;99.90;;;;;;6150698;23;20143;-65
2024/01/20 00:42:45;;;;;;;15.63;4.43;;;1.30;99.90;;;;;;6150097;23;20116;-65
2024/01/20 00:45:10;;;;;;;9.48;3.65;;;1.30;99.90;;;;;;6175232;23;20052;-65
2024/01/20 00:47:36;;;;;;;13.25;4.50;;;1.30;99.90;;;;;;6176226;23;20043;-65
2024/01/20 00:50:04;;;;;;;10.18;4.57;;;1.30;99.90;;;;;;6177234;23;20029;-65
2024/01/20 00:52:30;;;;;;;16.40;3.50;;;1.30;99.90;;;;;;6176639;23;20044;-65
2024/01/20 00:54:56;;;;;;;14.50;3.17;;;1.30;99.90;;;;;;6176719;23;20029;-65
2024/01/20 00:57:22;;;;;;;9.75;3.55;;;1.30;99.90;;;;;;6175886;23;20036;-65
2024/01/20 00:59:47;;;;;;;14.80;3.67;;;1.40;99.90;;;;;;6145540;23;20613;-65
2024/01/20 01:02:16;;;;;;;14.95;3.72;;;1.40;99.90;;;;;;6151426;23;20017;-65
2024/01/20 01:04:42;;;;;;;12.75;2.92;;;1.50;99.90;;;;;;6151902;23;20028;-65
2024/01/20 01:07:08;;;;;;;10.05;2.85;;;1.50;99.90;;;;;;6147456;23;20024;-65
2024/01/20 01:09:33;;;;;;;18.40;5.97;;;1.60;99.90;;;;;;6178111;23;20021;-66
2024/01/20 01:11:59;;;;;;;19.63;4.68;;;1.60;99.90;;;;;;6151514;23;20017;-65
2024/01/20 01:14:25;;;;;;;11.77;3.20;;;1.60;99.90;;;;;;6178000;23;20025;-65
2024/01/20 01:16:50;;;;;;;7.82;3.10;;;1.60;99.90;;;;;;6176623;23;20023;-65
2024/01/20 01:19:16;;;;;;;9.88;3.00;;;1.60;99.90;;;;;;6176656;23;20032;-65
2024/01/20 01:21:42;;;;;;;12.60;3.42;;;1.60;99.90;;;;;;6178337;23;20021;-65
2024/01/20 01:24:08;;;;;;;8.63;3.40;;;1.60;99.90;;;;;;6151235;23;20044;-65
2024/01/20 01:26:33;;;;;;;9.60;2.63;;;1.60;99.90;;;;;;6150594;23;20083;-65
2024/01/20 01:28:59;;;;;;;13.75;3.28;;;1.60;99.90;;;;;;6179065;23;20084;-66
2024/01/20 01:31:24;;;;;;;13.95;2.45;;;1.60;99.90;;;;;;6178723;23;20021;-65
2024/01/20 01:33:50;;;;;;;11.52;3.22;;;1.60;99.90;;;;;;6150286;23;20096;-66
2024/01/20 01:36:16;;;;;;;17.02;3.33;;;1.70;99.90;;;;;;6178266;23;20013;-65
2024/01/20 01:38:42;;;;;;;9.02;2.88;;;1.80;99.90;;;;;;6177989;23;20548;-65
2024/01/20 01:41:08;;;;;;;12.27;2.58;;;1.70;99.90;;;;;;6178083;23;20021;-66
2024/01/20 01:43:33;;;;;;;10.35;2.72;;;1.80;99.90;;;;;;6151655;23;20012;-65
2024/01/20 01:45:59;;;;;;;13.60;2.78;;;1.80;99.90;;;;;;6150700;23;20056;-66
2024/01/20 01:48:25;;;;;;;8.10;3.17;;;1.80;99.90;;;;;;6177523;23;20028;-66
2024/01/20 01:50:53;;;;;;;13.77;2.50;;;1.80;99.90;;;;;;6178096;23;20468;-66
2024/01/20 01:53:19;;;;;;;10.98;3.58;;;1.90;99.90;;;;;;6178520;23;20017;-66
2024/01/20 01:55:46;;;;;;;13.40;3.08;;;1.90;99.90;;;;;;6151269;23;20028;-65
2024/01/20 01:58:12;;;;;;;12.98;3.38;;;1.90;99.90;;;;;;6151875;23;20092;-66
2024/01/20 02:00:38;;;;;;;10.38;3.17;;;1.90;99.90;;;;;;6145640;23;20083;-65
2024/01/20 02:03:05;;;;;;;12.65;2.95;;;2.00;99.90;;;;;;6176738;23;20027;-65
2024/01/20 02:05:30;;;;;;;14.23;3.25;;;1.90;99.90;;;;;;6150545;23;20643;-65
2024/01/20 02:07:58;;;;;;;17.67;3.67;;;1.80;99.90;;;;;;6150954;23;20088;-65
2024/01/20 02:10:24;;;;;;;8.00;2.67;;;1.80;99.90;;;;;;6178400;23;20017;-65
2024/01/20 02:12:50;;;;;;;8.40;2.60;;;1.80;99.90;;;;;;6177290;23;20428;-65
2024/01/20 02:15:16;;;;;;;14.45;3.15;;;1.70;99.90;;;;;;6176170;23;20080;-66
2024/01/20 02:17:49;;;;;;;12.80;3.38;;;1.70;99.90;;;;;;6150652;23;20025;-66
2024/01/20 02:20:15;;;;;;;9.88;2.80;;;1.60;99.90;;;;;;6177860;23;20020;-65
2024/01/20 02:22:41;;;;;;;10.48;3.20;;;1.60;99.90;;;;;;6178001;23;20027;-66
2024/01/20 02:25:06;;;;;;;12.80;3.05;;;1.50;99.90;;;;;;6176353;23;20560;-65
2024/01/20 02:27:32;;;;;;;11.63;3.03;;;1.50;99.90;;;;;;6150641;23;20332;-66
2024/01/20 02:29:58;;;;;;;10.00;3.08;;;1.50;99.90;;;;;;6150819;23;20100;-65
2024/01/20 02:32:23;;;;;;;8.45;2.85;;;1.50;99.90;;;;;;6148842;23;20020;-65
2024/01/20 02:34:49;;;;;;;11.45;3.50;;;1.50;99.90;;;;;;6178390;23;20029;-65
2024/01/20 02:37:15;;;;;;;13.95;3.67;;;1.40;99.90;;;;;;6176332;23;20017;-66
2024/01/20 02:39:40;;;;;;;12.40;3.13;;;1.50;99.90;;;;;;6150890;23;20056;-65
2024/01/20 02:42:08;;;;;;;13.13;3.22;;;1.50;99.90;;;;;;6151349;23;20028;-65
2024/01/20 02:44:35;;;;;;;11.90;2.83;;;1.50;99.90;;;;;;6177804;23;20052;-66
2024/01/20 02:47:01;;;;;;;9.40;3.45;;;1.50;99.90;;;;;;6149160;23;20043;-66
2024/01/20 02:49:27;;;;;;;17.10;3.80;;;1.50;99.90;;;;;;6176606;23;20017;-65
2024/01/20 02:51:52;;;;;;;6.57;3.45;;;1.50;99.90;;;;;;6176709;23;20089;-65
2024/01/20 02:54:18;;;;;;;16.70;3.38;;;1.50;99.90;;;;;;6177635;23;20045;-65
2024/01/20 02:56:44;;;;;;;15.02;3.40;;;1.50;99.90;;;;;;6149956;23;20025;-65
2024/01/20 02:59:09;;;;;;;13.18;3.75;;;1.50;99.90;;;;;;6170975;23;20013;-66
2024/01/20 03:01:35;;;;;;;11.95;3.40;;;1.50;99.90;;;;;;6176023;23;20028;-66
2024/01/20 03:04:00;;;;;;;15.88;4.55;;;1.50;99.90;;;;;;6175748;23;20013;-65
2024/01/20 03:06:26;;;;;;;15.10;3.38;;;1.50;99.90;;;;;;6175943;23;20416;-66
2024/01/20 03:08:52;;;;;;;12.95;3.72;;;1.50;99.90;;;;;;6151230;23;20017;-65
2024/01/20 03:11:18;;;;;;;10.35;3.45;;;1.50;99.90;;;;;;6151056;23;20469;-65
2024/01/20 03:13:43;;;;;;;14.73;3.47;;;1.40;99.90;;;;;;6177167;23;20023;-65
2024/01/20 03:16:10;;;;;;;13.00;3.25;;;1.40;99.90;;;;;;6175045;23;20032;-66
2024/01/20 03:18:37;;;;;;;10.70;3.67;;;1.30;99.90;;;;;;6175803;23;20009;-65
2024/01/20 03:21:04;;;;;;;12.85;4.10;;;1.30;99.90;;;;;;6178040;23;20430;-65
2024/01/20 03:23:29;;;;;;;13.45;4.28;;;1.30;99.90;;;;;;6177107;23;20053;-65
2024/01/20 03:25:55;;;;;;;15.40;5.28;;;1.20;99.90;;;;;;6176698;23;20028;-65
2024/01/20 03:28:21;;;;;;;12.25;5.22;;;1.10;99.90;;;;;;6176846;23;20056;-65
2024/01/20 03:30:47;;;;;;;14.60;5.63;;;1.10;99.90;;;;;;6175797;23;20469;-65
2024/01/20 03:33:13;;;;;;;12.82;5.43;;;1.10;99.90;;;;;;6175095;23;20032;-65
2024/01/20 03:35:39;;;;;;;16.08;6.07;;;1.10;99.90;;;;;;6176530;23;20075;-65
2024/01/20 03:38:05;;;;;;;19.35;8.07;;;1.10;99.90;;;;;;6149735;23;20716;-65
2024/01/20 03:40:31;;;;;;;18.80;6.65;;;1.10;99.90;;;;;;6176798;23;20063;-65
2024/01/20 03:42:56;;;;;;;18.27;7.50;;;1.00;99.90;;;;;;6150407;23;20092;-65
2024/01/20 03:45:22;;;;;;;20.10;7.78;;;1.00;99.90;;;;;;6174911;23;20075;-66
2024/01/20 03:47:48;;;;;;;15.23;7.95;;;1.00;99.90;;;;;;6176737;23;20013;-65
2024/01/20 03:50:14;;;;;;;22.13;10.15;;;1.00;99.90;;;;;;6177315;23;20323;-65
2024/01/20 03:52:39;;;;;;;20.08;9.32;;;0.90;99.90;;;;;;6177077;23;20505;-65
2024/01/20 03:55:06;;;;;;;15.60;9.43;;;0.90;99.90;;;;;;6148248;23;20039;-65
2024/01/20 03:57:32;;;;;;;20.23;8.75;;;1.00;99.90;;;;;;6150476;23;20341;-66
2024/01/20 03:59:58;;;;;;;16.20;8.40;;;1.00;99.90;;;;;;6171942;23;20132;-65
2024/01/20 04:02:23;;;;;;;14.10;8.52;;;1.00;99.90;;;;;;6175311;23;20461;-65
2024/01/20 04:04:49;;;;;;;16.67;8.48;;;1.00;99.90;;;;;;6176288;23;20031;-66
2024/01/20 04:07:15;;;;;;;16.98;9.65;;;1.10;99.90;;;;;;6150475;23;20101;-65
2024/01/20 04:09:41;;;;;;;19.25;9.73;;;1.00;99.90;;;;;;6150058;23;20386;-66
2024/01/20 04:12:07;;;;;;;21.10;8.25;;;1.00;99.90;;;;;;6176565;23;20021;-65
2024/01/20 04:14:33;;;;;;;15.57;7.55;;;1.00;99.90;;;;;;6150906;23;20013;-65
2024/01/20 04:16:58;;;;;;;20.08;8.00;;;1.00;99.90;;;;;;6175070;23;20028;-65
2024/01/20 04:19:24;;;;;;;21.45;9.18;;;1.00;99.90;;;;;;6177616;23;20028;-66
2024/01/20 04:21:50;;;;;;;14.35;8.18;;;1.00;99.90;;;;;;6176208;23;20103;-64
2024/01/20 04:24:15;;;;;;;16.35;8.68;;;0.90;99.90;;;;;;6176502;23;20496;-64
2024/01/20 04:26:41;;;;;;;24.80;8.20;;;1.00;99.90;;;;;;6176024;23;20453;-64
2024/01/20 04:29:07;;;;;;;15.88;8.45;;;0.90;99.90;;;;;;6175441;23;20281;-64
2024/01/20 04:31:32;;;;;;;18.92;8.68;;;0.80;99.90;;;;;;6149547;23;20021;-64
2024/01/20 04:33:58;;;;;;;23.17;10.27;;;0.80;99.90;;;;;;6175484;23;20024;-64
2024/01/20 04:36:24;;;;;;;23.77;11.50;;;0.70;99.90;;;;;;6149657;23;20048;-65
2024/01/20 04:38:50;;;;;;;28.75;12.93;;;0.70;99.90;;;;;;6149663;23;20333;-64
2024/01/20 04:41:15;;;;;;;28.20;15.13;;;0.70;99.90;;;;;;6174280;23;20122;-64
2024/01/20 04:43:42;;;;;;;26.33;13.82;;;0.60;99.90;;;;;;6176335;23;20017;-65
2024/01/20 04:46:08;;;;;;;27.88;13.80;;;0.50;99.90;;;;;;6148854;23;20027;-65
2024/01/20 04:48:33;;;;;;;25.77;16.08;;;0.50;99.90;;;;;;6149636;23;20021;-65
2024/01/20 04:50:59;;;;;;;27.48;16.15;;;0.50;99.90;;;;;;6148673;23;20103;-65
2024/01/20 04:53:25;;;;;;;28.42;15.88;;;0.50;99.90;;;;;;6150285;23;20029;-65
2024/01/20 04:55:50;;;;;;;26.08;14.88;;;0.50;99.90;;;;;;6150124;23;20063;-64
2024/01/20 04:58:16;;;;;;;27.95;14.65;;;0.40;99.90;;;;;;6176359;23;20044;-64
2024/01/20 05:00:44;;;;;;;30.55;13.40;;;0.40;99.90;;;;;;6169208;23;20092;-64
2024/01/20 05:03:10;;;;;;;23.08;14.15;;;0.50;99.90;;;;;;6146518;23;20471;-64
2024/01/20 05:05:38;;;;;;;20.58;12.45;;;0.40;99.90;;;;;;6176327;23;20017;-64
2024/01/20 05:08:03;;;;;;;26.27;13.60;;;0.40;99.90;;;;;;6177181;23;20067;-64
2024/01/20 05:10:29;;;;;;;30.92;15.05;;;0.40;99.90;;;;;;6149302;23;20028;-65
2024/01/20 05:12:55;;;;;;;22.33;12.68;;;0.50;99.90;;;;;;6149056;23;20036;-64
2024/01/20 05:15:20;;;;;;;24.52;12.43;;;0.50;99.90;;;;;;6175799;23;20023;-64
2024/01/20 05:17:46;;;;;;;24.20;12.80;;;0.50;99.90;;;;;;6146949;23;20017;-64
2024/01/20 05:20:16;;;;;;;23.60;12.30;;;0.50;99.90;;;;;;6150443;23;20021;-64
2024/01/20 05:22:42;;;;;;;27.85;12.02;;;0.60;99.90;;;;;;6149125;23;20028;-64
2024/01/20 05:25:08;;;;;;;23.30;11.75;;;0.60;99.90;;;;;;6174066;23;20568;-64
2024/01/20 05:27:33;;;;;;;20.90;11.35;;;0.60;99.90;;;;;;6150236;23;20021;-64
2024/01/20 05:29:59;;;;;;;24.63;10.40;;;0.70;99.90;;;;;;6149261;23;20019;-64
2024/01/20 05:32:25;;;;;;;23.27;9.98;;;0.70;99.90;;;;;;6175429;23;20021;-64
2024/01/20 05:34:51;;;;;;;18.25;8.02;;;0.80;99.90;;;;;;6150014;23;20061;-64
2024/01/20 05:37:16;;;;;;;20.23;8.45;;;0.80;99.90;;;;;;6174537;23;20372;-64
2024/01/20 05:39:42;;;;;;;15.65;8.52;;;0.90;99.90;;;;;;6174661;23;20389;-64
2024/01/20 05:42:08;;;;;;;19.30;9.88;;;0.90;99.90;;;;;;6176742;23;20071;-64
2024/01/20 05:44:33;;;;;;;23.02;12.73;;;0.90;99.90;;;;;;6176715;23;20031;-65
2024/01/20 05:46:59;;;;;;;20.77;11.10;;;0.80;99.90;;;;;;6176323;23;20021;-64
2024/01/20 05:49:24;;;;;;;24.55;12.30;;;0.80;99.90;;;;;;6152098;23;20021;-64
2024/01/20 05:51:50;;;;;;;25.10;14.07;;;0.70;99.90;;;;;;6151900;23;20021;-65
2024/01/20 05:54:16;;;;;;;28.02;13.05;;;0.60;99.90;;;;;;6149593;23;20017;-64
2024/01/20 05:56:41;;;;;;;28.77;14.52;;;0.70;99.90;;;;;;6173912;23;20044;-64
2024/01/20 05:59:07;;;;;;;25.83;12.55;;;0.70;99.90;;;;;;6170347;23;20013;-64
2024/01/20 06:01:33;;;;;;;21.73;12.13;;;0.70;99.90;;;;;;6151168;23;20021;-64
2024/01/20 06:03:58;;;;;;;21.38;11.18;;;0.70;99.90;;;;;;6178100;23;20021;-64
2024/01/20 06:06:24;;;;;;;24.63;11.40;;;0.80;99.90;;;;;;6177884;23;20028;-64
2024/01/20 06:08:50;;;;;;;26.70;11.50;;;0.80;99.90;;;;;;6177144;23;20021;-64
2024/01/20 06:11:16;;;;;;;21.75;10.80;;;0.90;99.90;;;;;;6177068;23;20025;-64
2024/01/20 06:13:41;;;;;;;18.67;10.35;;;0.90;99.90;;;;;;6178756;23;20064;-64
2024/01/20 06:16:07;;;;;;;19.58;10.65;;;0.90;99.90;;;;;;6177439;23;20067;-64
2024/01/20 06:18:33;;;;;;;18.40;9.30;;;1.00;99.90;;;;;;6176877;23;20017;-64
2024/01/20 06:20:59;;;;;;;21.85;9.43;;;0.90;99.90;;;;;;6178120;23;20025;-65
2024/01/20 06:23:26;;;;;;;15.18;9.18;;;1.00;99.90;;;;;;6150387;23;20044;-65
2024/01/20 06:25:52;;;;;;;23.65;9.65;;;0.90;99.90;;;;;;6178378;23;20608;-64
2024/01/20 06:28:17;;;;;;;22.20;9.55;;;0.90;99.90;;;;;;6151004;23;20044;-65
2024/01/20 06:30:46;;;;;;;24.80;10.77;;;0.90;99.90;;;;;;6177780;23;20481;-65
2024/01/20 06:33:12;;;;;;;24.73;11.88;;;0.90;99.90;;;;;;6151395;23;20045;-65
2024/01/20 06:35:38;;;;;;;26.83;13.02;;;0.80;99.90;;;;;;6151015;23;20021;-65
2024/01/20 06:38:04;;;;;;;25.67;15.23;;;0.70;99.90;;;;;;6177867;23;20014;-65
2024/01/20 06:40:30;;;;;;;32.35;15.68;;;0.60;99.90;;;;;;6178755;23;20099;-65
2024/01/20 06:42:55;;;;;;;29.35;16.70;;;0.50;99.90;;;;;;6150748;23;20029;-65
2024/01/20 06:45:21;;;;;;;28.98;15.43;;;0.40;99.90;;;;;;6176529;23;20687;-65
2024/01/20 06:47:47;;;;;;;37.55;17.90;;;0.40;99.90;;;;;;6177305;23;20441;-65
2024/01/20 06:50:13;;;;;;;33.42;17.92;;;0.30;99.90;;;;;;6178853;23;20017;-65
2024/01/20 06:52:39;;;;;;;35.25;18.38;;;0.20;99.90;;;;;;6151906;23;20097;-65
2024/01/20 06:55:05;;;;;;;34.83;17.10;;;0.20;99.90;;;;;;6176020;23;20079;-65
2024/01/20 06:57:31;;;;;;;31.85;17.63;;;0.20;99.90;;;;;;6177726;23;20092;-65
2024/01/20 06:59:56;;;;;;;29.88;13.80;;;0.20;99.90;;;;;;6145941;23;20049;-65
2024/01/20 07:02:22;;;;;;;23.95;12.35;;;0.20;99.90;;;;;;6176816;23;20123;-65
2024/01/20 07:04:48;;;;;;;24.67;11.90;;;0.30;99.90;;;;;;6177360;23;20048;-65
2024/01/20 07:07:13;;;;;;;25.27;11.73;;;0.30;99.90;;;;;;6149759;23;20028;-65
2024/01/20 07:09:40;;;;;;;27.60;13.63;;;0.30;99.90;;;;;;6177225;23;20048;-65
2024/01/20 07:12:06;;;;;;;37.13;16.33;;;0.30;99.90;;;;;;6151003;23;20481;-65
2024/01/20 07:14:32;;;;;;;34.55;15.88;;;0.30;99.90;;;;;;6177973;23;20344;-65
2024/01/20 07:16:58;;;;;;;38.42;18.23;;;0.30;99.90;;;;;;6175451;23;20021;-65
2024/01/20 07:19:23;;;;;;;37.63;18.92;;;0.30;99.90;;;;;;6150876;23;20029;-65
2024/01/20 07:21:49;;;;;;;46.10;20.42;;;0.30;99.90;;;;;;6178236;23;20025;-65
2024/01/20 07:24:15;;;;;;;41.67;20.77;;;0.30;99.90;;;;;;6175165;23;20044;-65
2024/01/20 07:26:41;;;;;;;48.25;23.70;;;0.30;99.90;;;;;;6148958;23;20033;-65
2024/01/20 07:29:06;;;;;;;47.65;23.00;;;0.30;99.90;;;;;;6150883;23;20024;-65
2024/01/20 07:31:32;;;;;;;52.67;23.83;;;0.30;99.90;;;;;;6150491;23;20044;-65
2024/01/20 07:33:58;;;;;;;53.67;25.77;;;0.30;99.90;;;;;;6175876;23;20056;-66
2024/01/20 07:36:23;;;;;;;49.22;22.88;;;0.30;99.90;;;;;;6175487;23;20048;-66
2024/01/20 07:38:49;;;;;;;49.95;24.95;;;0.40;99.90;;;;;;6148967;23;20092;-68
2024/01/20 07:41:15;;;;;;;48.47;22.98;;;0.40;99.90;;;;;;6149148;23;20037;-67
2024/01/20 07:43:40;;;;;;;60.75;30.80;;;0.40;99.90;;;;;;6149506;23;20021;-65
2024/01/20 07:46:08;;;;;;;53.30;26.90;;;0.40;99.90;;;;;;6147674;23;20024;-65
2024/01/20 07:48:34;;;;;;;54.40;25.70;;;0.50;99.90;;;;;;6176674;23;20017;-65
2024/01/20 07:50:59;;;;;;;56.92;25.58;;;0.50;99.90;;;;;;6177756;23;20024;-65
2024/01/20 07:53:25;;;;;;;57.67;28.02;;;0.60;99.90;;;;;;6176156;23;20025;-64
2024/01/20 07:55:51;;;;;;;66.72;30.58;;;0.60;99.90;;;;;;6177724;23;20048;-65
2024/01/20 07:58:16;;;;;;;59.88;28.05;;;0.70;99.90;;;;;;6149979;23;20024;-64
2024/01/20 08:00:42;;;;;;;56.13;27.65;;;0.70;99.90;;;;;;6143066;23;20083;-64
2024/01/20 08:03:07;;;;;;;57.05;28.67;;;0.70;99.90;;;;;;6176933;23;20017;-64
2024/01/20 08:05:33;;;;;;;63.30;28.42;;;0.80;99.90;;;;;;6150354;23;20021;-64
2024/01/20 08:07:59;;;;;;;56.47;26.52;;;0.80;99.90;;;;;;6176604;23;20028;-64
2024/01/20 08:10:24;;;;;;;57.95;27.20;;;0.90;99.90;;;;;;6178056;23;20025;-64
2024/01/20 08:12:51;;;;;;;59.88;28.90;;;0.90;99.90;;;;;;6176597;23;20013;-64
2024/01/20 08:15:17;;;;;;;58.10;27.98;;;0.90;99.90;;;;;;6176611;23;20028;-64
2024/01/20 08:17:43;;;;;;;55.90;27.77;;;0.90;99.90;;;;;;6148231;23;20577;-64
2024/01/20 08:20:09;;;;;;;65.68;30.13;;;1.00;99.90;;;;;;6176548;23;20032;-64
2024/01/20 08:22:35;;;;;;;57.25;28.50;;;1.00;99.90;;;;;;6176738;23;20665;-64
2024/01/20 08:25:03;;;;;;;57.17;28.00;;;1.00;99.90;;;;;;6175662;23;20032;-64
2024/01/20 08:27:29;;;;;;;62.97;29.95;;;1.00;99.90;;;;;;6175743;23;20069;-64
2024/01/20 08:29:58;;;;;;;48.17;23.90;;;1.10;99.90;;;;;;6175892;23;20023;-65
2024/01/20 08:32:23;;;;;;;58.33;27.48;;;1.10;99.90;;;;;;6176466;23;20028;-64
2024/01/20 08:34:49;;;;;;;53.53;26.33;;;1.10;99.90;;;;;;6176859;23;20029;-63
2024/01/20 08:37:15;;;;;;;53.10;26.92;;;1.10;99.90;;;;;;6176757;23;20041;-65
2024/01/20 08:39:40;;;;;;;52.55;25.85;;;1.20;99.90;;;;;;6151157;23;20083;-65
2024/01/20 08:42:06;;;;;;;53.58;26.50;;;1.10;99.90;;;;;;6149093;23;20067;-65
2024/01/20 08:44:32;;;;;;;48.90;22.90;;;1.20;99.90;;;;;;6177149;23;20025;-65
2024/01/20 08:46:58;;;;;;;53.83;27.05;;;1.20;99.90;;;;;;6175604;23;20017;-64
2024/01/20 08:49:24;;;;;;;58.97;28.00;;;1.20;99.90;;;;;;6150851;23;20538;-65
2024/01/20 08:51:50;;;;;;;49.30;25.80;;;1.20;99.90;;;;;;6175872;23;20029;-65
2024/01/20 08:54:18;;;;;;;51.63;26.60;;;1.20;99.90;;;;;;6177681;23;20830;-64
2024/01/20 08:56:44;;;;;;;45.10;22.35;;;1.20;99.90;;;;;;6149587;23;20350;-64
2024/01/20 08:59:10;;;;;;;51.50;26.23;;;1.30;99.90;;;;;;6171723;23;20298;-65
2024/01/20 09:01:36;;;;;;;51.28;25.42;;;1.30;99.90;;;;;;6149928;23;20041;-65
2024/01/20 09:04:01;;;;;;;56.05;26.90;;;1.40;99.90;;;;;;6149828;23;20040;-65
2024/01/20 09:06:27;;;;;;;47.05;24.52;;;1.40;99.90;;;;;;6176931;23;20021;-65
2024/01/20 09:08:53;;;;;;;49.63;25.17;;;1.40;99.90;;;;;;6150365;23;20025;-64
2024/01/20 09:11:18;;;;;;;52.50;24.85;;;1.50;99.90;;;;;;6176093;23;20040;-64
2024/01/20 09:13:44;;;;;;;47.67;21.98;;;1.50;99.90;;;;;;6176785;23;20060;-65
2024/01/20 09:16:10;;;;;;;44.42;23.45;;;1.50;99.90;;;;;;6146806;23;20056;-64
2024/01/20 09:18:35;;;;;;;51.67;25.02;;;1.50;99.90;;;;;;6175063;23;20064;-64
2024/01/20 09:21:01;;;;;;;49.35;23.92;;;1.50;99.90;;;;;;6178129;23;20017;-65
2024/01/20 09:23:27;;;;;;;52.47;23.17;;;1.40;99.90;;;;;;6152954;23;20045;-65
2024/01/20 09:25:52;;;;;;;53.53;24.45;;;1.50;99.90;;;;;;6176427;23;20091;-65
2024/01/20 09:28:18;;;;;;;46.30;24.23;;;1.50;99.90;;;;;;6177825;23;20051;-65
2024/01/20 09:30:44;;;;;;;42.85;19.33;;;1.50;99.90;;;;;;6151962;23;20021;-65
2024/01/20 09:33:09;;;;;;;53.33;22.45;;;1.50;99.90;;;;;;6177159;23;20096;-65
2024/01/20 09:35:35;;;;;;;41.13;19.77;;;1.50;99.90;;;;;;6151082;23;20033;-65
2024/01/20 09:38:01;;;;;;;52.60;23.27;;;1.50;99.90;;;;;;6178807;23;20013;-64
2024/01/20 09:40:29;;;;;;;41.67;21.67;;;1.60;99.90;;;;;;6176630;23;20516;-65
2024/01/20 09:42:55;;;;;;;45.55;23.20;;;1.50;99.90;;;;;;6178557;23;20017;-64
2024/01/20 09:45:20;;;;;;;60.72;25.73;;;1.50;99.90;;;;;;6150343;23;20138;-64
2024/01/20 09:47:46;;;;;;;52.30;24.45;;;1.50;99.90;;;;;;6177241;23;20017;-65
2024/01/20 09:50:12;;;;;;;55.88;25.27;;;1.60;99.90;;;;;;6152753;23;20021;-65
2024/01/20 09:52:58;;;;;;;50.72;26.38;;;1.60;99.90;;;;;;6178824;23;20491;-65
2024/01/20 09:55:25;;;;;;;53.67;27.25;;;1.70;99.90;;;;;;6178432;23;20035;-65
2024/01/20 09:57:51;;;;;;;55.22;26.38;;;1.70;99.90;;;;;;6177178;23;20101;-65
2024/01/20 10:00:19;;;;;;;55.55;26.80;;;1.70;99.90;;;;;;6171296;23;20885;-65
2024/01/20 10:02:46;;;;;;;64.20;29.15;;;1.80;99.90;;;;;;6178202;23;20025;-65
2024/01/20 10:05:13;;;;;;;53.58;26.50;;;1.90;99.90;;;;;;6177878;23;20063;-65
2024/01/20 10:07:38;;;;;;;58.13;26.42;;;1.80;99.90;;;;;;6176920;23;20021;-64
2024/01/20 10:10:06;;;;;;;49.95;25.02;;;1.90;99.90;;;;;;6151058;23;20044;-65
2024/01/20 10:12:32;;;;;;;47.50;25.23;;;1.90;99.90;;;;;;6176456;23;20021;-65
2024/01/20 10:14:57;;;;;;;50.35;23.98;;;1.90;99.90;;;;;;6174818;23;20580;-65
2024/01/20 10:17:23;;;;;;;45.60;22.75;;;2.00;99.90;;;;;;6174988;23;20016;-65
2024/01/20 10:19:49;;;;;;;39.47;21.30;;;2.00;99.90;;;;;;6147445;23;20104;-69
2024/01/20 10:22:15;;;;;;;41.92;19.00;;;2.00;99.90;;;;;;6145672;23;20021;-65
2024/01/20 10:24:51;;;;;;;44.25;21.15;;;2.10;99.90;;;;;;6174893;23;20446;-65
2024/01/20 10:27:24;;;;;;;45.53;21.13;;;2.10;99.90;;;;;;6170668;23;20025;-65
2024/01/20 10:29:51;;;;;;;45.85;21.00;;;2.10;99.90;;;;;;6169800;23;20025;-65
2024/01/20 10:32:17;;;;;;;37.20;18.77;;;2.10;99.90;;;;;;6171252;23;20013;-65
2024/01/20 10:34:44;;;;;;;41.55;20.10;;;2.10;99.90;;;;;;6169386;23;20048;-66
2024/01/20 10:37:13;;;;;;;46.72;22.08;;;2.10;99.90;;;;;;6175265;23;20458;-65
2024/01/20 10:39:46;;;;;;;36.45;19.45;;;2.10;99.90;;;;;;6174766;23;20040;-65
2024/01/20 10:42:14;;;;;;;44.27;20.00;;;2.10;99.90;;;;;;6171382;23;20013;-67
2024/01/20 10:45:02;;;;;;;43.83;19.95;;;2.10;99.90;;;;;;6144243;23;20028;-66
2024/01/20 10:47:39;;;;;;;38.45;20.65;;;2.10;99.90;;;;;;6171036;23;20017;-65
2024/01/20 10:50:06;;;;;;;48.20;21.70;;;2.10;99.90;;;;;;6147221;23;20063;-66
2024/01/20 10:52:35;;;;;;;38.97;18.55;;;2.10;99.90;;;;;;6145384;23;20025;-68
2024/01/20 10:55:08;;;;;;;58.33;21.63;;;2.10;99.90;;;;;;6171263;23;20469;-65
2024/01/20 10:57:39;;;;;;;46.92;22.25;;;2.10;99.90;;;;;;6173591;23;20059;-65
2024/01/20 11:00:08;;;;;;;47.58;22.85;;;2.20;99.90;;;;;;6168047;23;20436;-65
2024/01/20 11:02:35;;;;;;;49.55;23.67;;;2.10;99.90;;;;;;6170714;23;20029;-65
2024/01/20 11:05:01;;;;;;;43.40;22.60;;;2.10;99.90;;;;;;6145381;23;20454;-65
2024/01/20 11:07:26;;;;;;;40.28;19.83;;;2.10;99.90;;;;;;6145024;23;20088;-65
2024/01/20 11:09:56;;;;;;;43.45;21.73;;;2.10;99.90;;;;;;6169680;23;20445;-65
2024/01/20 11:12:23;;;;;;;47.60;22.08;;;2.10;99.90;;;;;;6169416;23;20013;-65
2024/01/20 11:14:51;;;;;;;46.40;22.27;;;2.10;99.90;;;;;;6172213;23;20044;-65
2024/01/20 11:17:21;;;;;;;41.00;20.90;;;2.10;99.90;;;;;;6144358;23;20028;-65
2024/01/20 11:19:47;;;;;;;53.58;24.05;;;2.10;99.90;;;;;;6170050;23;20068;-65
2024/01/20 11:22:48;;;;;;;50.17;24.45;;;2.10;99.90;;;;;;6172315;23;20032;-65
2024/01/20 11:25:14;;;;;;;43.38;22.38;;;2.20;99.90;;;;;;6018715;23;20034;-64
2024/01/20 11:27:54;;;;;;;49.05;24.15;;;2.20;99.90;;;;;;6092932;23;20467;-66
2024/01/20 11:30:29;;;;;;;45.53;22.95;;;2.20;99.90;;;;;;6116938;23;20097;-64
2024/01/20 11:32:56;;;;;;;49.55;23.98;;;2.20;99.90;;;;;;6140380;23;20429;-64
2024/01/20 11:35:22;;;;;;;46.58;22.05;;;2.30;99.90;;;;;;6116266;23;20413;-65
2024/01/20 11:37:53;;;;;;;48.45;23.02;;;2.30;99.90;;;;;;6142736;23;20017;-65
2024/01/20 11:40:18;;;;;;;54.83;25.27;;;2.30;99.90;;;;;;6116557;23;20378;-64
2024/01/20 11:42:44;;;;;;;51.78;24.88;;;2.30;99.90;;;;;;6140289;23;20072;-65
2024/01/20 11:45:10;;;;;;;49.42;23.98;;;2.40;99.90;;;;;;6114943;23;20104;-65
2024/01/20 11:47:36;;;;;;;46.55;22.98;;;2.40;99.90;;;;;;6110952;23;20036;-68
2024/01/20 11:50:02;;;;;;;47.15;24.15;;;2.40;99.90;;;;;;6114440;23;20021;-67
2024/01/20 11:52:28;;;;;;;50.35;23.88;;;2.40;99.90;;;;;;6116561;23;20049;-65
2024/01/20 11:54:54;;;;;;;50.08;23.40;;;2.40;99.90;;;;;;6142718;23;20060;-65
2024/01/20 11:57:20;;;;;;;46.28;22.45;;;2.40;99.90;;;;;;6141265;23;20065;-66
2024/01/20 11:59:47;;;;;;;52.88;24.80;;;2.40;99.90;;;;;;6139593;23;20032;-64
2024/01/20 12:02:12;;;;;;;44.25;22.08;;;2.40;99.90;;;;;;6116928;23;20072;-65
2024/01/20 12:04:38;;;;;;;49.15;23.85;;;2.40;99.90;;;;;;6120208;23;20017;-75
2024/01/20 12:07:04;;;;;;;36.67;18.92;;;2.40;99.90;;;;;;6119635;23;20021;-65
2024/01/20 12:09:30;;;;;;;47.33;24.67;;;2.40;99.90;;;;;;6119996;23;20473;-65
2024/01/20 12:11:56;;;;;;;53.63;25.40;;;2.40;99.90;;;;;;6144064;23;20025;-65
2024/01/20 12:14:22;;;;;;;40.88;20.67;;;2.50;99.90;;;;;;6145500;23;20013;-65
2024/01/20 12:16:49;;;;;;;43.50;23.48;;;2.50;99.90;;;;;;6146475;23;20358;-65
2024/01/20 12:19:16;;;;;;;43.90;22.90;;;2.50;99.90;;;;;;6119942;23;20017;-66
2024/01/20 12:21:42;;;;;;;51.95;24.55;;;2.50;99.90;;;;;;6146613;23;20027;-65
2024/01/20 12:24:14;;;;;;;47.47;23.60;;;2.50;99.90;;;;;;6146684;23;20107;-66
2024/01/20 12:26:43;;;;;;;46.20;23.55;;;2.60;99.90;;;;;;6149975;23;20028;-65
2024/01/20 12:29:09;;;;;;;43.75;21.23;;;2.50;99.90;;;;;;6149930;23;20025;-66
2024/01/20 12:31:35;;;;;;;44.00;21.08;;;2.60;99.90;;;;;;6176416;23;20040;-65
2024/01/20 12:34:01;;;;;;;35.97;18.95;;;2.60;99.90;;;;;;6148378;23;20035;-65
2024/01/20 12:36:27;;;;;;;44.20;19.35;;;2.60;99.90;;;;;;6148658;23;20028;-64